METAR / TAF

Die METAR- und TAF-Liste ist aus technischen Gründen (Verfügbarkeit, Update-Zyklen) nicht für ein Meteo-Briefing gedacht. Benutzen Sie stattdessen skybriefing der Skyguide  oder das TAMSI (MeteoSchweiz-eigene Meteo Selfbriefing-Plattform für Firmen aus der Aviatik; Anfragen über das

Kontaktformular

METAR Switzerland

METAR     LSZH 182120Z 00000KT 7000 FEW006 OVC009 00/M01 Q1028
               NOSIG=
METAR     LSZH 182150Z 17002KT 7000 FEW006 OVC009 00/M01 Q1028
               NOSIG=
METAR     LSGG 182120Z 02003KT 9999 FEW002 OVC009 01/00 Q1027 NOSIG=
METAR     LSGG 182150Z AUTO VRB02KT 9999 BKN009 01/00 Q1027=
METAR     LFSB 182130Z VRB02KT 4000 BR BKN009 01/00 Q1028 NOSIG=
METAR     LSZB 182120Z AUTO VRB01KT 6000 OVC014 M05/M05 Q1027=
METAR     LSZB 182150Z AUTO 14003KT 8000 OVC015 M04/M04 Q1027=
METAR     LSZA 182120Z AUTO 03003KT CAVOK M02/M05 Q1026=
METAR     LSZA 182150Z AUTO VRB02KT CAVOK M04/M06 Q1027=
METAR     LSZG 182120Z AUTO 02001KT 9999 OVC027 M01/M01 Q1027=
METAR     LSZG 182150Z AUTO 32001KT 4900 BR OVC033 M00/M01 Q1028=
METAR     LSZR 182120Z AUTO 12001KT 4100 -SN BKN/// 00/M00 Q1027=
METAR     LSZR 182150Z AUTO 14002KT 3700 -DZ BR OVC012 SCT120 01/00
               Q1028 RESN=
METAR     LSGS 182120Z AUTO VRB02KT 9000 NCD M07/M08 Q1028=
METAR     LSGS 182150Z AUTO 09005KT 8000 NCD M07/M08 Q1028=
METAR     LSGC 182120Z AUTO 00000KT 2600 -SN BKN/// M03/M03 Q1025=
METAR     LSGC 182150Z AUTO 22002KT 1400 BR OVC002 M03/M03 Q1025
               RESN=
METAR     LSZC 182120Z AUTO VRB02KT 6000 -SN BKN/// 00/M01 Q1027=
METAR     LSZC 182150Z AUTO 24003KT 7000 -SN BKN/// 00/M01 Q1028=
METAR     LSZL 182120Z NIL=
METAR     LSZL 182150Z AUTO VRB02KT 9999NDV NCD M05/M07 Q1026 RMK=
METAR     LSZS 182120Z AUTO VRB01KT 9999 -SN BKN/// M10/M11 Q1020=
METAR     LSZS 182150Z AUTO VRB02KT 8000 -SN BKN/// M10/M11 Q1020=
METAR     LSMA 182120Z NIL=
METAR     LSMA 182150Z AUTO 00000KT 5000NDV SCT017 BKN021 OVC027
               M00/M01 Q1028 RMK=
METAR     LSMD 182120Z NIL=
METAR     LSMD 182150Z AUTO 00000KT 9000NDV OVC010 00/M01 Q1028 RMK=
METAR     LSME 182120Z NIL=
METAR     LSME 182150Z AUTO 00000KT 4100NDV BR FEW017 OVC031 00/M01
               Q1028 RMK=
METAR     LSMM 182120Z NIL=
METAR     LSMM 182150Z NIL=
METAR     LSMP 182120Z NIL=
METAR     LSMP 182150Z AUTO 00000KT 7000NDV BKN008 OVC022 M01/M02
               Q1028 RMK=
METAR     LSMS 182120Z AUTO VRB02KT 9000 NCD M07/M08 Q1028=
METAR     LSMS 182150Z AUTO 09005KT 8000 NCD M07/M08 Q1028=
Updated on Monday, 18 December 2017, 23:03

TAF Switzerland

TAF     LSZH 182025Z 1821/2003 VRB03KT 9999 FEW009 OVC013
             TX02/1914Z TNM00/1905Z PROB40 TEMPO 1901/1910 3000
             -SN BKN007 TEMPO 1910/1917 BKN020=
TAF     LSGG 182025Z 1821/2003 05006KT 9999 BKN010 TX04/1914Z
             TNM01/1906Z BECMG 1909/1911 BKN020=
TAF AAB LFSB 181943Z 1819/1918 VRB03KT 6000 BKN010 BKN035 PROB40
             TEMPO 1819/1910 4000 BR BKN005 PROB30 TEMPO 1902/1909
             0500 FZFG BKN001 BECMG 1910/1912 8000 NSW PROB40
             TEMPO 1914/1917 SCT015 BKN025=
TAF AAA LFSB 181816Z 1818/1918 VRB03KT 6000 BKN010 BKN035 PROB40
             TEMPO 1820/1910 4000 BR BKN005 PROB30 TEMPO 1902/1909
             0500 FZFG BKN001 BECMG 1910/1912 8000 NSW PROB40
             TEMPO 1914/1917 SCT015 BKN025=
TAF     LFSB 181700Z 1818/1918 VRB03KT 6000 BKN010 BKN025 BECMG
             1818/1821 4000 BR BKN005 PROB30 TEMPO 1818/1824 1500
             BCFG TEMPO 1900/1906 1500 -DZ -SG BR OVC003 TEMPO
             1906/1909 2500 BECMG 1910/1912 8000 NSW BKN010 OVC020
             PROB40 TEMPO 1914/1916 SCT015 BKN025 TEMPO 1916/1918
             4000 BR BKN005=
TAF AAB LSGS 182005Z 1820/1824 CNL=
TAF     LSGS 181425Z 1815/1824 VRB03KT 9999 FEW020 BKN080=
TAF CCA LSZA 181425Z 1815/1824 VRB03KT CAVOK=
TAF AAF LSZA 182054Z 1820/1824 CNL=
TAF RRA LSZB 181425Z 1815/1824 15005KT 9999 SCT010 BKN020 PROB30
             TEMPO 1816/1824 BKN012=
TAF AAC LSZB 182054Z 1820/1824 CNL=
TAF AAD LSZG 182054Z 1820/1824 CNL=
TAF     LSZG 181425Z 1815/1824 VRB03KT 5000 BR BKN015 TEMPO
             1815/1818 4000 -SN BKN009 BECMG 1818/1821 2500 BR
             BKN008=
TAF     LSZL 181725Z 1818/1903 VRB03KT CAVOK=
TAF RRB LSZR 181425Z 1815/1824 VRB05KT 4000 -SN FEW007 BKN025 BECMG
             1815/1817 9999 PROB30 TEMPO 1815/1824 BKN014=
TAF AAD LSZR 182054Z 1820/1824 CNL=
TAF AAA LSGC 182005Z 1820/1824 CNL=
TAF     LSGC 181425Z 1815/1824 23005KT 3000 -SN VV008 BECMG
             1817/1819 5000 NSW OVC015=
TAF AAE LSZC 182054Z 1820/1824 CNL=
TAF     LSZC 181425Z 1815/1824 VRB03KT 9999 BKN020 PROB40 TEMPO
             1815/1824 4000 -SN BKN012=
TAF AAE LSZS 182054Z 1820/1824 CNL=
TAF     LSZS 181425Z 1815/1824 VRB03KT 9999 BKN030 TXM08/1815Z
             PROB30 TEMPO 1815/1821 3000 -SN BKN014=
TAF     LSMA 181625Z 1817/1923 VRB03KT 6000 BKN010 BECMG 1820/1823
             4000 BR BKN005 PROB30 TEMPO 1900/1906 1200 -SN VV005
             BECMG 1906/1909 5000 BKN016=
TAF     LSMD 181625Z 1817/1923 16005KT 9999 FEW010 BKN020 PROB40
             TEMPO 1901/1910 3000 -SN BKN007=
TAF     LSME 181625Z 1817/1923 VRB03KT 6000 BKN010 BECMG 1820/1823
             4000 BR BKN005 PROB30 TEMPO 1900/1906 1200 -SN VV005
             BECMG 1906/1909 5000 BKN016=
TAF     LSMM 181625Z 1817/1923 VRB03KT 7000 BKN014 TEMPO 1906/1923
             7000 SCT015=
TAF     LSMP 181625Z 1817/1923 07005KT 9999 SCT040 BKN070=
Updated on Monday, 18 December 2017, 23:03